createdAt,value
2022-10-01T00:00:06.901Z,1.40
2022-10-01T00:03:11.872Z,1.93
2022-10-01T00:06:16.529Z,1.53
2022-10-01T00:09:18.381Z,1.50
2022-10-01T00:12:20.060Z,1.83
2022-10-01T00:15:21.825Z,1.70
2022-10-01T00:18:23.527Z,1.60
2022-10-01T00:21:28.805Z,1.60
2022-10-01T00:24:30.502Z,1.57
2022-10-01T00:27:32.193Z,1.60
2022-10-01T00:30:37.317Z,1.80
2022-10-01T00:33:42.780Z,1.60
2022-10-01T00:36:44.493Z,1.90
2022-10-01T00:39:46.151Z,2.07
2022-10-01T00:42:48.289Z,1.63
2022-10-01T00:45:51.709Z,1.90
2022-10-01T00:49:11.198Z,2.43
2022-10-01T00:52:18.031Z,2.47
2022-10-01T00:55:42.009Z,2.37
2022-10-01T00:58:43.909Z,2.27
2022-10-01T01:01:45.678Z,2.17
2022-10-01T01:04:48.125Z,2.50
2022-10-01T01:07:52.662Z,2.33
2022-10-01T01:11:23.111Z,2.70
2022-10-01T01:14:45.119Z,2.90
2022-10-01T01:18:22.251Z,2.60
2022-10-01T01:21:45.709Z,2.63
2022-10-01T01:24:55.858Z,2.20
2022-10-01T01:28:22.564Z,2.63
2022-10-01T01:31:34.616Z,2.90
2022-10-01T01:34:39.925Z,2.67
2022-10-01T01:37:51.625Z,2.37
2022-10-01T01:40:55.759Z,2.93
2022-10-01T01:44:01.016Z,2.80
2022-10-01T01:47:06.699Z,2.47
2022-10-01T01:50:10.787Z,3.07
2022-10-01T01:53:12.544Z,2.90
2022-10-01T01:56:14.191Z,2.60
2022-10-01T01:59:19.502Z,3.13
2022-10-01T02:02:28.039Z,2.97
2022-10-01T02:05:43.163Z,3.13
2022-10-01T02:09:07.981Z,2.67
2022-10-01T02:12:24.985Z,3.40
2022-10-01T02:15:36.900Z,3.50
2022-10-01T02:18:50.607Z,3.17
2022-10-01T02:22:27.484Z,2.87
2022-10-01T02:25:34.595Z,3.07
2022-10-01T02:28:39.516Z,3.53
2022-10-01T02:31:41.649Z,3.20
2022-10-01T02:34:46.040Z,2.83
2022-10-01T02:37:51.546Z,3.10
2022-10-01T02:40:55.559Z,2.87
2022-10-01T02:44:11.607Z,3.03
2022-10-01T02:47:36.727Z,2.63
2022-10-01T02:50:49.971Z,3.07
2022-10-01T02:53:58.240Z,2.70
2022-10-01T02:57:18.444Z,2.67
2022-10-01T03:00:23.212Z,2.80
2022-10-01T03:03:26.056Z,2.73
2022-10-01T03:06:27.973Z,3.03
2022-10-01T03:09:31.532Z,2.13
2022-10-01T03:12:33.365Z,2.97
2022-10-01T03:15:35.066Z,2.37
2022-10-01T03:18:36.780Z,2.40
2022-10-01T03:21:38.431Z,2.53
2022-10-01T03:24:40.159Z,2.27
2022-10-01T03:27:42.360Z,2.33
2022-10-01T03:30:44.989Z,2.07
2022-10-01T03:33:46.651Z,2.57
2022-10-01T03:36:48.769Z,2.30
2022-10-01T03:39:50.530Z,2.70
2022-10-01T03:42:52.184Z,2.03
2022-10-01T03:45:53.912Z,2.23
2022-10-01T03:48:57.590Z,2.10
2022-10-01T03:51:59.325Z,2.33
2022-10-01T03:55:00.943Z,2.50
2022-10-01T03:58:02.723Z,1.70
2022-10-01T04:01:04.515Z,2.40
2022-10-01T04:04:06.610Z,2.30
2022-10-01T04:07:08.248Z,1.97
2022-10-01T04:10:09.993Z,2.47
2022-10-01T04:13:11.978Z,1.93
2022-10-01T04:16:15.530Z,2.20
2022-10-01T04:19:17.283Z,2.20
2022-10-01T04:22:18.945Z,1.93
2022-10-01T04:25:20.610Z,1.83
2022-10-01T04:28:22.308Z,2.10
2022-10-01T04:31:27.238Z,2.17
2022-10-01T04:34:48.264Z,2.20
2022-10-01T04:38:03.416Z,1.60
2022-10-01T04:41:05.308Z,1.77
2022-10-01T04:44:06.989Z,1.70
2022-10-01T04:47:09.059Z,1.73
2022-10-01T04:50:10.747Z,1.43
2022-10-01T04:53:20.613Z,1.83
2022-10-01T04:56:22.384Z,1.70
2022-10-01T04:59:25.578Z,1.37
2022-10-01T05:02:29.316Z,1.57
2022-10-01T05:05:32.993Z,0.93
2022-10-01T05:08:41.283Z,1.60
2022-10-01T05:11:42.956Z,1.33
2022-10-01T05:14:44.598Z,1.73
2022-10-01T05:17:46.911Z,1.30
2022-10-01T05:20:48.534Z,1.80
2022-10-01T05:23:50.198Z,1.33
2022-10-01T05:26:53.998Z,1.27
2022-10-01T05:29:56.304Z,1.33
2022-10-01T05:33:00.463Z,1.27
2022-10-01T05:36:05.000Z,1.43
2022-10-01T05:39:06.697Z,1.20
2022-10-01T05:42:08.365Z,1.10
2022-10-01T05:45:10.489Z,1.20
2022-10-01T05:48:12.766Z,1.57
2022-10-01T05:51:15.116Z,1.50
2022-10-01T05:54:19.529Z,1.53
2022-10-01T05:57:21.186Z,1.63
2022-10-01T06:00:23.072Z,1.10
2022-10-01T06:03:26.945Z,1.23
2022-10-01T06:06:28.680Z,1.57
2022-10-01T06:09:30.383Z,1.70
2022-10-01T06:12:34.220Z,1.60
2022-10-01T06:15:38.130Z,1.87
2022-10-01T06:18:41.148Z,1.83
2022-10-01T06:21:42.789Z,1.93
2022-10-01T06:24:45.433Z,1.70
2022-10-01T06:28:00.963Z,1.97
2022-10-01T06:31:03.345Z,1.60
2022-10-01T06:34:05.171Z,2.00
2022-10-01T06:37:06.801Z,1.60
2022-10-01T06:40:08.983Z,1.93
2022-10-01T06:43:10.681Z,2.00
2022-10-01T06:46:12.476Z,2.27
2022-10-01T06:49:14.161Z,2.70
2022-10-01T06:52:34.619Z,1.90
2022-10-01T06:55:37.600Z,2.30
2022-10-01T06:58:39.292Z,2.80
2022-10-01T07:01:41.082Z,3.30
2022-10-01T07:04:42.791Z,3.93
2022-10-01T07:07:49.037Z,4.17
2022-10-01T07:10:50.675Z,3.60
2022-10-01T07:13:54.567Z,4.27
2022-10-01T07:16:56.539Z,4.17
2022-10-01T07:19:58.553Z,5.10
2022-10-01T07:23:01.692Z,4.73
2022-10-01T07:26:08.633Z,4.63
2022-10-01T07:29:10.594Z,4.50
2022-10-01T07:32:12.295Z,4.30
2022-10-01T07:35:14.390Z,4.70
2022-10-01T07:38:16.552Z,3.97
2022-10-01T07:41:18.333Z,3.80
2022-10-01T07:44:20.221Z,3.37
2022-10-01T07:47:22.176Z,3.07
2022-10-01T07:50:25.242Z,3.23
2022-10-01T07:53:27.513Z,3.20
2022-10-01T07:56:29.381Z,3.03
2022-10-01T07:59:31.255Z,2.93
2022-10-01T08:02:33.000Z,2.70
2022-10-01T08:05:36.569Z,2.93
2022-10-01T08:08:38.215Z,3.30
2022-10-01T08:11:39.840Z,2.33
2022-10-01T08:14:41.759Z,1.87
2022-10-01T08:17:44.542Z,2.17
2022-10-01T08:20:46.407Z,2.30
2022-10-01T08:23:48.401Z,2.37
2022-10-01T08:26:55.846Z,1.90
2022-10-01T08:29:57.544Z,1.77
2022-10-01T08:33:01.820Z,2.27
2022-10-01T08:36:04.882Z,2.40
2022-10-01T08:39:06.639Z,2.40
2022-10-01T08:42:35.053Z,2.43
2022-10-01T08:45:44.867Z,2.47
2022-10-01T08:48:57.316Z,2.63
2022-10-01T08:52:09.596Z,2.60
2022-10-01T08:55:16.031Z,3.47
2022-10-01T08:58:25.496Z,2.70
2022-10-01T09:01:28.328Z,2.37
2022-10-01T09:04:30.120Z,2.57
2022-10-01T09:07:56.443Z,2.87
2022-10-01T09:11:06.939Z,2.27
2022-10-01T09:14:17.484Z,3.03
2022-10-01T09:17:42.904Z,3.07
2022-10-01T09:20:58.854Z,2.57
2022-10-01T09:24:10.580Z,3.00
2022-10-01T09:27:23.099Z,2.80
2022-10-01T09:30:26.124Z,2.77
2022-10-01T09:33:38.169Z,2.90
2022-10-01T09:36:42.949Z,3.40
2022-10-01T09:40:03.093Z,3.13
2022-10-01T09:43:08.701Z,4.07
2022-10-01T09:46:14.994Z,3.23
2022-10-01T09:49:27.530Z,3.77
2022-10-01T09:52:38.065Z,5.13
2022-10-01T09:55:42.087Z,3.30
2022-10-01T09:58:50.443Z,3.50
2022-10-01T10:01:57.977Z,13.90
2022-10-01T10:05:13.895Z,4.33
2022-10-01T10:08:34.492Z,3.70
2022-10-01T10:11:36.607Z,3.90
2022-10-01T10:14:42.038Z,3.60
2022-10-01T10:17:50.100Z,3.20
2022-10-01T10:20:53.893Z,2.87
2022-10-01T10:24:04.523Z,2.90
2022-10-01T10:27:26.882Z,2.67
2022-10-01T10:30:29.121Z,2.90
2022-10-01T10:33:30.799Z,2.33
2022-10-01T10:36:35.902Z,2.57
2022-10-01T10:39:40.980Z,1.80
2022-10-01T10:42:51.531Z,1.93
2022-10-01T10:45:56.252Z,2.10
2022-10-01T10:49:05.902Z,2.00
2022-10-01T10:52:29.844Z,1.70
2022-10-01T10:55:31.939Z,1.50
2022-10-01T10:58:40.200Z,1.60
2022-10-01T11:01:43.454Z,1.37
2022-10-01T11:04:47.392Z,1.30
2022-10-01T11:07:53.680Z,1.20
2022-10-01T11:11:02.166Z,1.60
2022-10-01T11:14:36.137Z,1.67
2022-10-01T11:17:56.586Z,2.13
2022-10-01T11:21:26.022Z,1.90
2022-10-01T11:24:33.706Z,1.47
2022-10-01T11:28:03.369Z,1.50
2022-10-01T11:31:18.422Z,1.30
2022-10-01T11:34:37.809Z,1.30
2022-10-01T11:37:54.273Z,1.50
2022-10-01T11:41:03.752Z,1.23
2022-10-01T11:44:16.425Z,0.97
2022-10-01T11:47:31.724Z,0.50
2022-10-01T11:50:43.470Z,0.60
2022-10-01T11:53:54.402Z,0.60
2022-10-01T11:57:16.864Z,0.80
2022-10-01T12:00:18.627Z,0.90
2022-10-01T12:03:28.629Z,0.80
2022-10-01T12:06:43.303Z,0.93
2022-10-01T12:10:26.552Z,0.70
2022-10-01T12:13:41.157Z,1.40
2022-10-01T12:16:58.306Z,0.60
2022-10-01T12:20:04.440Z,0.90
2022-10-01T12:23:13.271Z,0.77
2022-10-01T12:26:55.709Z,0.70
2022-10-01T12:30:09.615Z,0.63
2022-10-01T12:33:32.812Z,0.90
2022-10-01T12:36:45.391Z,1.13
2022-10-01T12:39:54.079Z,1.37
2022-10-01T12:43:35.738Z,1.10
2022-10-01T12:46:52.708Z,1.30
2022-10-01T12:50:19.960Z,1.30
2022-10-01T12:53:49.786Z,0.93
2022-10-01T12:57:11.655Z,1.03
2022-10-01T13:00:31.796Z,0.67
2022-10-01T13:03:51.293Z,0.70
2022-10-01T13:07:03.155Z,0.80
2022-10-01T13:10:07.744Z,0.60
2022-10-01T13:13:22.054Z,0.73
2022-10-01T13:16:33.521Z,0.63
2022-10-01T13:19:48.035Z,0.77
2022-10-01T13:23:08.992Z,1.43
2022-10-01T13:26:17.415Z,1.07
2022-10-01T13:29:25.924Z,0.83
2022-10-01T13:32:35.328Z,0.70
2022-10-01T13:35:40.136Z,0.87
2022-10-01T13:38:44.176Z,1.57
2022-10-01T13:41:45.877Z,1.27
2022-10-01T13:44:53.212Z,0.57
2022-10-01T13:48:29.619Z,0.80
2022-10-01T13:51:39.151Z,0.90
2022-10-01T13:54:50.511Z,0.83
2022-10-01T13:58:05.656Z,1.67
2022-10-01T14:01:21.308Z,0.70
2022-10-01T14:04:38.243Z,1.33
2022-10-01T14:07:40.174Z,0.80
2022-10-01T14:11:09.717Z,0.90
2022-10-01T14:14:37.511Z,0.93
2022-10-01T14:17:40.007Z,0.83
2022-10-01T14:21:02.435Z,0.70
2022-10-01T14:24:12.869Z,0.60
2022-10-01T14:27:29.187Z,0.63
2022-10-01T14:31:00.045Z,0.87
2022-10-01T14:34:17.029Z,0.80
2022-10-01T14:37:19.870Z,1.50
2022-10-01T14:40:23.976Z,1.30
2022-10-01T14:43:30.930Z,0.67
2022-10-01T14:46:36.108Z,1.43
2022-10-01T14:49:38.003Z,0.53
2022-10-01T14:52:45.496Z,0.90
2022-10-01T14:55:49.796Z,0.70
2022-10-01T14:59:03.988Z,0.90
2022-10-01T15:02:19.087Z,0.90
2022-10-01T15:05:27.508Z,0.47
2022-10-01T15:08:47.642Z,0.90
2022-10-01T15:11:51.109Z,0.90
2022-10-01T15:14:56.555Z,0.80
2022-10-01T15:17:58.484Z,1.10
2022-10-01T15:21:06.318Z,0.70
2022-10-01T15:24:18.392Z,0.83
2022-10-01T15:27:21.453Z,0.90
2022-10-01T15:30:26.685Z,0.73
2022-10-01T15:33:31.315Z,1.20
2022-10-01T15:36:35.475Z,0.70
2022-10-01T15:39:40.157Z,1.07
2022-10-01T15:43:08.778Z,0.73
2022-10-01T15:46:28.956Z,0.80
2022-10-01T15:49:30.817Z,1.10
2022-10-01T15:52:54.590Z,0.80
2022-10-01T15:56:07.461Z,0.50
2022-10-01T15:59:17.411Z,1.10
2022-10-01T16:02:24.247Z,1.17
2022-10-01T16:05:37.720Z,1.10
2022-10-01T16:09:03.472Z,0.80
2022-10-01T16:12:20.821Z,1.03
2022-10-01T16:15:28.204Z,0.67
2022-10-01T16:18:32.731Z,0.70
2022-10-01T16:21:40.612Z,1.03
2022-10-01T16:24:46.273Z,1.23
2022-10-01T16:27:50.491Z,0.80
2022-10-01T16:30:52.231Z,0.90
2022-10-01T16:33:53.864Z,1.23
2022-10-01T16:36:55.587Z,1.00
2022-10-01T16:39:57.243Z,0.97
2022-10-01T16:43:00.299Z,1.23
2022-10-01T16:46:02.123Z,0.90
2022-10-01T16:49:10.915Z,0.80
2022-10-01T16:52:14.098Z,0.97
2022-10-01T16:55:22.953Z,2.53
2022-10-01T16:58:24.830Z,1.47
2022-10-01T17:01:26.739Z,1.30
2022-10-01T17:04:34.074Z,1.00
2022-10-01T17:07:35.925Z,1.13
2022-10-01T17:11:01.852Z,0.83
2022-10-01T17:14:03.521Z,0.87
2022-10-01T17:17:05.189Z,0.80
2022-10-01T17:20:08.073Z,0.80
2022-10-01T17:23:11.442Z,0.60
2022-10-01T17:26:13.164Z,1.27
2022-10-01T17:29:14.829Z,1.93
2022-10-01T17:32:19.175Z,1.40
2022-10-01T17:35:21.033Z,1.83
2022-10-01T17:38:23.222Z,1.37
2022-10-01T17:41:25.081Z,0.90
2022-10-01T17:44:26.843Z,2.50
2022-10-01T17:47:28.721Z,3.27
2022-10-01T17:50:30.363Z,6.77
2022-10-01T17:53:39.719Z,7.00
2022-10-01T17:56:44.122Z,11.17
2022-10-01T17:59:45.863Z,12.83
2022-10-01T18:02:47.643Z,7.70
2022-10-01T18:05:50.760Z,4.37
2022-10-01T18:08:55.914Z,5.70
2022-10-01T18:11:58.062Z,4.77
2022-10-01T18:15:00.855Z,4.00
2022-10-01T18:19:45.725Z,6.13
2022-10-01T18:21:24.204Z,6.23
2022-10-01T18:24:25.933Z,5.63
2022-10-01T18:27:27.594Z,2.07
2022-10-01T18:30:29.433Z,2.80
2022-10-01T18:33:31.165Z,2.70
2022-10-01T18:36:51.139Z,1.93
2022-10-01T18:40:20.762Z,2.10
2022-10-01T18:43:24.999Z,2.60
2022-10-01T18:46:38.924Z,2.40
2022-10-01T18:50:15.746Z,2.67
2022-10-01T18:53:46.393Z,1.67
2022-10-01T18:56:54.073Z,1.13
2022-10-01T19:00:21.713Z,1.70
2022-10-01T19:03:53.433Z,1.70
2022-10-01T19:07:24.950Z,2.20
2022-10-01T19:10:48.738Z,2.23
2022-10-01T19:14:14.642Z,2.27
2022-10-01T19:17:41.328Z,2.00
2022-10-01T19:21:14.555Z,1.63
2022-10-01T19:24:47.657Z,1.50
2022-10-01T19:27:58.221Z,1.63
2022-10-01T19:31:19.686Z,1.57
2022-10-01T19:34:50.468Z,1.43
2022-10-01T19:37:58.117Z,1.83
2022-10-01T19:41:12.291Z,2.23
2022-10-01T19:44:39.771Z,2.93
2022-10-01T19:47:46.765Z,1.83
2022-10-01T19:50:54.754Z,1.80
2022-10-01T19:54:01.316Z,1.97
2022-10-01T19:57:17.113Z,2.17
2022-10-01T20:00:21.760Z,1.97
2022-10-01T20:03:26.589Z,1.93
2022-10-01T20:06:33.806Z,2.70
2022-10-01T20:09:45.793Z,1.90
2022-10-01T20:13:14.433Z,1.50
2022-10-01T20:16:36.154Z,1.10
2022-10-01T20:20:01.467Z,1.50
2022-10-01T20:23:21.891Z,2.00
2022-10-01T20:26:42.408Z,2.20
2022-10-01T20:29:52.116Z,2.23
2022-10-01T20:33:14.010Z,2.10
2022-10-01T20:36:25.933Z,2.07
2022-10-01T20:39:34.033Z,2.03
2022-10-01T20:42:41.609Z,1.97
2022-10-01T20:45:47.090Z,2.67
2022-10-01T20:48:56.637Z,1.63
2022-10-01T20:52:13.405Z,2.20
2022-10-01T20:55:26.392Z,2.23
2022-10-01T20:58:50.179Z,2.30
2022-10-01T21:02:16.162Z,2.10
2022-10-01T21:05:26.690Z,1.60
2022-10-01T21:08:32.865Z,2.20
2022-10-01T21:11:52.704Z,1.57
2022-10-01T21:14:55.925Z,1.97
2022-10-01T21:18:11.636Z,1.73
2022-10-01T21:21:19.474Z,1.40
2022-10-01T21:24:44.071Z,2.73
2022-10-01T21:28:18.515Z,2.20
2022-10-01T21:31:38.549Z,1.87
2022-10-01T21:35:30.597Z,2.20
2022-10-01T21:38:58.679Z,2.20
2022-10-01T21:42:16.490Z,2.17
2022-10-01T21:45:46.130Z,1.80
2022-10-01T21:49:12.396Z,1.90
2022-10-01T21:52:34.757Z,1.47
2022-10-01T21:56:08.750Z,1.57
2022-10-01T21:59:59.333Z,1.80
2022-10-01T22:03:09.955Z,1.87
2022-10-01T22:06:16.184Z,1.43
2022-10-01T22:09:59.612Z,1.57
2022-10-01T22:13:08.693Z,1.73
2022-10-01T22:16:14.330Z,1.50
2022-10-01T22:19:25.544Z,1.97
2022-10-01T22:22:38.556Z,1.67
2022-10-01T22:26:03.413Z,1.87
2022-10-01T22:29:10.811Z,1.87
2022-10-01T22:32:15.259Z,1.30
2022-10-01T22:35:32.610Z,2.27
2022-10-01T22:38:39.601Z,1.90
2022-10-01T22:41:48.810Z,2.13
2022-10-01T22:44:50.488Z,1.80
2022-10-01T22:48:13.497Z,2.03
2022-10-01T22:51:29.194Z,2.17
2022-10-01T22:54:58.285Z,1.67
2022-10-01T22:58:06.220Z,1.90
2022-10-01T23:01:33.898Z,1.87
2022-10-01T23:05:01.443Z,2.10
2022-10-01T23:08:35.798Z,2.10
2022-10-01T23:12:24.177Z,2.20
2022-10-01T23:15:37.805Z,2.00
2022-10-01T23:19:17.436Z,2.33
2022-10-01T23:22:46.405Z,1.73
2022-10-01T23:26:26.452Z,1.77
2022-10-01T23:29:46.881Z,1.77
2022-10-01T23:33:00.429Z,1.77
2022-10-01T23:36:20.731Z,2.07
2022-10-01T23:39:25.107Z,1.70
2022-10-01T23:42:42.189Z,2.47
2022-10-01T23:45:49.252Z,1.93
2022-10-01T23:49:04.916Z,1.60
2022-10-01T23:52:25.258Z,2.43
2022-10-01T23:55:59.213Z,2.93
2022-10-01T23:59:03.084Z,1.73
